sensor_id;sensor_type;location;lat;lon;timestamp;temperature;humidity
22813;DHT22;11573;51.334;3.244;2024-01-16T00:01:43;3.50;99.90
22813;DHT22;11573;51.334;3.244;2024-01-16T00:04:10;3.50;99.90
22813;DHT22;11573;51.334;3.244;2024-01-16T00:06:41;3.40;99.90
22813;DHT22;11573;51.334;3.244;2024-01-16T00:09:12;3.40;99.90
22813;DHT22;11573;51.334;3.244;2024-01-16T00:11:43;3.30;99.90
22813;DHT22;11573;51.334;3.244;2024-01-16T00:14:10;3.30;99.90
22813;DHT22;11573;51.334;3.244;2024-01-16T00:16:47;3.30;99.90
22813;DHT22;11573;51.334;3.244;2024-01-16T00:19:14;3.40;99.90
22813;DHT22;11573;51.334;3.244;2024-01-16T00:21:43;3.30;99.90
22813;DHT22;11573;51.334;3.244;2024-01-16T00:24:13;3.30;99.90
22813;DHT22;11573;51.334;3.244;2024-01-16T00:26:40;3.40;99.90
22813;DHT22;11573;51.334;3.244;2024-01-16T00:29:07;3.40;99.90
22813;DHT22;11573;51.334;3.244;2024-01-16T00:31:36;3.40;99.90
22813;DHT22;11573;51.334;3.244;2024-01-16T00:34:03;3.40;99.90
22813;DHT22;11573;51.334;3.244;2024-01-16T00:36:30;3.40;99.90
22813;DHT22;11573;51.334;3.244;2024-01-16T00:38:57;3.40;99.90
22813;DHT22;11573;51.334;3.244;2024-01-16T00:41:24;3.50;99.90
22813;DHT22;11573;51.334;3.244;2024-01-16T00:43:51;3.40;99.90
22813;DHT22;11573;51.334;3.244;2024-01-16T00:46:18;3.30;99.90
22813;DHT22;11573;51.334;3.244;2024-01-16T00:48:45;3.30;99.90
22813;DHT22;11573;51.334;3.244;2024-01-16T00:51:12;3.30;99.90
22813;DHT22;11573;51.334;3.244;2024-01-16T00:53:41;3.20;99.90
22813;DHT22;11573;51.334;3.244;2024-01-16T00:56:08;3.20;99.90
22813;DHT22;11573;51.334;3.244;2024-01-16T00:58:35;3.10;99.90
22813;DHT22;11573;51.334;3.244;2024-01-16T01:01:02;3.10;99.90
22813;DHT22;11573;51.334;3.244;2024-01-16T01:03:30;3.20;99.90
22813;DHT22;11573;51.334;3.244;2024-01-16T01:05:57;3.10;99.90
22813;DHT22;11573;51.334;3.244;2024-01-16T01:08:25;3.10;99.90
22813;DHT22;11573;51.334;3.244;2024-01-16T01:10:52;3.10;99.90
22813;DHT22;11573;51.334;3.244;2024-01-16T01:13:19;3.00;99.90
22813;DHT22;11573;51.334;3.244;2024-01-16T01:15:46;3.00;99.90
22813;DHT22;11573;51.334;3.244;2024-01-16T01:18:13;2.90;99.90
22813;DHT22;11573;51.334;3.244;2024-01-16T01:20:40;2.80;99.90
22813;DHT22;11573;51.334;3.244;2024-01-16T01:23:07;2.80;99.90
22813;DHT22;11573;51.334;3.244;2024-01-16T01:25:34;2.80;99.90
22813;DHT22;11573;51.334;3.244;2024-01-16T01:28:01;2.80;99.90
22813;DHT22;11573;51.334;3.244;2024-01-16T01:30:28;2.70;99.90
22813;DHT22;11573;51.334;3.244;2024-01-16T01:32:55;2.70;99.90
22813;DHT22;11573;51.334;3.244;2024-01-16T01:35:22;2.80;99.90
22813;DHT22;11573;51.334;3.244;2024-01-16T01:37:49;2.70;99.90
22813;DHT22;11573;51.334;3.244;2024-01-16T01:40:16;2.80;99.90
22813;DHT22;11573;51.334;3.244;2024-01-16T01:42:43;3.00;99.90
22813;DHT22;11573;51.334;3.244;2024-01-16T01:45:11;2.90;99.90
22813;DHT22;11573;51.334;3.244;2024-01-16T01:47:39;3.00;99.90
22813;DHT22;11573;51.334;3.244;2024-01-16T01:50:09;3.00;99.90
22813;DHT22;11573;51.334;3.244;2024-01-16T01:52:39;2.90;99.90
22813;DHT22;11573;51.334;3.244;2024-01-16T01:55:13;2.90;99.90
22813;DHT22;11573;51.334;3.244;2024-01-16T01:57:40;2.90;99.90
22813;DHT22;11573;51.334;3.244;2024-01-16T02:00:10;3.00;99.90
22813;DHT22;11573;51.334;3.244;2024-01-16T02:02:42;3.00;99.90
22813;DHT22;11573;51.334;3.244;2024-01-16T02:05:10;3.10;99.90
22813;DHT22;11573;51.334;3.244;2024-01-16T02:07:38;2.90;99.90
22813;DHT22;11573;51.334;3.244;2024-01-16T02:10:05;3.00;99.90
22813;DHT22;11573;51.334;3.244;2024-01-16T02:12:33;3.00;99.90
22813;DHT22;11573;51.334;3.244;2024-01-16T02:15:00;2.90;99.90
22813;DHT22;11573;51.334;3.244;2024-01-16T02:17:27;2.90;99.90
22813;DHT22;11573;51.334;3.244;2024-01-16T02:19:54;2.90;99.90
22813;DHT22;11573;51.334;3.244;2024-01-16T02:22:25;2.90;99.90
22813;DHT22;11573;51.334;3.244;2024-01-16T02:24:54;2.90;99.90
22813;DHT22;11573;51.334;3.244;2024-01-16T02:27:22;2.90;99.90
22813;DHT22;11573;51.334;3.244;2024-01-16T02:29:49;2.90;99.90
22813;DHT22;11573;51.334;3.244;2024-01-16T02:32:16;2.90;99.90
22813;DHT22;11573;51.334;3.244;2024-01-16T02:34:43;2.90;99.90
22813;DHT22;11573;51.334;3.244;2024-01-16T02:37:10;2.90;99.90
22813;DHT22;11573;51.334;3.244;2024-01-16T02:39:37;2.90;99.90
22813;DHT22;11573;51.334;3.244;2024-01-16T02:42:04;2.90;99.90
22813;DHT22;11573;51.334;3.244;2024-01-16T02:44:32;2.90;99.90
22813;DHT22;11573;51.334;3.244;2024-01-16T02:46:59;2.90;99.90
22813;DHT22;11573;51.334;3.244;2024-01-16T02:49:27;2.90;99.90
22813;DHT22;11573;51.334;3.244;2024-01-16T02:51:54;2.90;99.90
22813;DHT22;11573;51.334;3.244;2024-01-16T02:54:22;2.90;99.90
22813;DHT22;11573;51.334;3.244;2024-01-16T02:56:49;2.90;99.90
22813;DHT22;11573;51.334;3.244;2024-01-16T02:59:16;2.90;99.90
22813;DHT22;11573;51.334;3.244;2024-01-16T03:01:43;2.90;99.90
22813;DHT22;11573;51.334;3.244;2024-01-16T03:04:10;2.90;99.90
22813;DHT22;11573;51.334;3.244;2024-01-16T03:06:38;2.90;99.90
22813;DHT22;11573;51.334;3.244;2024-01-16T03:09:05;2.90;99.90
22813;DHT22;11573;51.334;3.244;2024-01-16T03:11:33;2.90;99.90
22813;DHT22;11573;51.334;3.244;2024-01-16T03:14:00;3.00;99.90
22813;DHT22;11573;51.334;3.244;2024-01-16T03:16:28;2.90;99.90
22813;DHT22;11573;51.334;3.244;2024-01-16T03:18:56;2.90;99.90
22813;DHT22;11573;51.334;3.244;2024-01-16T03:21:23;2.90;99.90
22813;DHT22;11573;51.334;3.244;2024-01-16T03:23:50;3.00;99.90
22813;DHT22;11573;51.334;3.244;2024-01-16T03:26:17;2.90;99.90
22813;DHT22;11573;51.334;3.244;2024-01-16T03:28:44;2.80;99.90
22813;DHT22;11573;51.334;3.244;2024-01-16T03:31:13;2.50;99.90
22813;DHT22;11573;51.334;3.244;2024-01-16T03:33:41;2.40;99.90
22813;DHT22;11573;51.334;3.244;2024-01-16T03:36:10;2.30;99.90
22813;DHT22;11573;51.334;3.244;2024-01-16T03:38:39;2.20;99.90
22813;DHT22;11573;51.334;3.244;2024-01-16T03:41:06;2.20;99.90
22813;DHT22;11573;51.334;3.244;2024-01-16T03:43:34;2.10;99.90
22813;DHT22;11573;51.334;3.244;2024-01-16T03:46:01;2.00;99.90
22813;DHT22;11573;51.334;3.244;2024-01-16T03:48:28;2.00;99.90
22813;DHT22;11573;51.334;3.244;2024-01-16T03:50:56;1.90;99.90
22813;DHT22;11573;51.334;3.244;2024-01-16T03:53:23;1.90;99.90
22813;DHT22;11573;51.334;3.244;2024-01-16T03:55:51;1.90;99.90
22813;DHT22;11573;51.334;3.244;2024-01-16T03:58:18;2.00;99.90
22813;DHT22;11573;51.334;3.244;2024-01-16T04:00:45;1.80;99.90
22813;DHT22;11573;51.334;3.244;2024-01-16T04:03:12;1.80;99.90
22813;DHT22;11573;51.334;3.244;2024-01-16T04:05:40;1.70;99.90
22813;DHT22;11573;51.334;3.244;2024-01-16T04:08:07;1.70;99.90
22813;DHT22;11573;51.334;3.244;2024-01-16T04:10:34;1.70;99.90
22813;DHT22;11573;51.334;3.244;2024-01-16T04:13:02;1.90;99.90
22813;DHT22;11573;51.334;3.244;2024-01-16T04:15:29;1.80;99.90
22813;DHT22;11573;51.334;3.244;2024-01-16T04:17:56;1.80;99.90
22813;DHT22;11573;51.334;3.244;2024-01-16T04:20:24;1.90;99.90
22813;DHT22;11573;51.334;3.244;2024-01-16T04:22:51;1.80;99.90
22813;DHT22;11573;51.334;3.244;2024-01-16T04:25:18;1.70;99.90
22813;DHT22;11573;51.334;3.244;2024-01-16T04:27:45;1.70;99.90
22813;DHT22;11573;51.334;3.244;2024-01-16T04:30:13;1.70;99.90
22813;DHT22;11573;51.334;3.244;2024-01-16T04:32:40;1.60;99.90
22813;DHT22;11573;51.334;3.244;2024-01-16T04:35:08;1.50;99.90
22813;DHT22;11573;51.334;3.244;2024-01-16T04:37:35;1.60;99.90
22813;DHT22;11573;51.334;3.244;2024-01-16T04:40:04;1.60;99.90
22813;DHT22;11573;51.334;3.244;2024-01-16T04:42:32;1.50;99.90
22813;DHT22;11573;51.334;3.244;2024-01-16T04:44:59;1.60;99.90
22813;DHT22;11573;51.334;3.244;2024-01-16T04:47:26;1.60;99.90
22813;DHT22;11573;51.334;3.244;2024-01-16T04:49:53;1.50;99.90
22813;DHT22;11573;51.334;3.244;2024-01-16T04:52:21;1.40;99.90
22813;DHT22;11573;51.334;3.244;2024-01-16T04:54:48;1.40;99.90
22813;DHT22;11573;51.334;3.244;2024-01-16T04:57:15;1.40;99.90
22813;DHT22;11573;51.334;3.244;2024-01-16T04:59:42;1.40;99.90
22813;DHT22;11573;51.334;3.244;2024-01-16T05:02:09;1.40;99.90
22813;DHT22;11573;51.334;3.244;2024-01-16T05:04:37;1.40;99.90
22813;DHT22;11573;51.334;3.244;2024-01-16T05:07:05;1.40;99.90
22813;DHT22;11573;51.334;3.244;2024-01-16T05:09:32;1.30;99.90
22813;DHT22;11573;51.334;3.244;2024-01-16T05:12:00;1.30;99.90
22813;DHT22;11573;51.334;3.244;2024-01-16T05:14:27;1.30;99.90
22813;DHT22;11573;51.334;3.244;2024-01-16T05:16:54;1.10;99.90
22813;DHT22;11573;51.334;3.244;2024-01-16T05:19:21;1.00;99.90
22813;DHT22;11573;51.334;3.244;2024-01-16T05:21:48;0.90;99.90
22813;DHT22;11573;51.334;3.244;2024-01-16T05:24:15;0.80;99.90
22813;DHT22;11573;51.334;3.244;2024-01-16T05:26:42;0.80;99.90
22813;DHT22;11573;51.334;3.244;2024-01-16T05:29:09;0.60;99.90
22813;DHT22;11573;51.334;3.244;2024-01-16T05:31:40;0.60;99.90
22813;DHT22;11573;51.334;3.244;2024-01-16T05:34:12;0.60;99.90
22813;DHT22;11573;51.334;3.244;2024-01-16T05:36:39;0.50;99.90
22813;DHT22;11573;51.334;3.244;2024-01-16T05:39:06;0.60;99.90
22813;DHT22;11573;51.334;3.244;2024-01-16T05:41:34;0.50;99.90
22813;DHT22;11573;51.334;3.244;2024-01-16T05:44:02;0.40;99.90
22813;DHT22;11573;51.334;3.244;2024-01-16T05:46:32;0.40;99.90
22813;DHT22;11573;51.334;3.244;2024-01-16T05:48:59;0.40;99.90
22813;DHT22;11573;51.334;3.244;2024-01-16T05:51:27;0.40;99.90
22813;DHT22;11573;51.334;3.244;2024-01-16T05:53:55;0.40;99.90
22813;DHT22;11573;51.334;3.244;2024-01-16T05:56:22;0.40;99.90
22813;DHT22;11573;51.334;3.244;2024-01-16T05:58:49;0.40;99.90
22813;DHT22;11573;51.334;3.244;2024-01-16T06:01:16;0.40;99.90
22813;DHT22;11573;51.334;3.244;2024-01-16T06:03:43;0.40;99.90
22813;DHT22;11573;51.334;3.244;2024-01-16T06:06:13;0.40;99.90
22813;DHT22;11573;51.334;3.244;2024-01-16T06:08:40;0.40;99.90
22813;DHT22;11573;51.334;3.244;2024-01-16T06:11:07;0.40;99.90
22813;DHT22;11573;51.334;3.244;2024-01-16T06:13:36;0.50;99.90
22813;DHT22;11573;51.334;3.244;2024-01-16T06:16:06;0.50;99.90
22813;DHT22;11573;51.334;3.244;2024-01-16T06:18:33;0.60;99.90
22813;DHT22;11573;51.334;3.244;2024-01-16T06:21:01;0.60;99.90
22813;DHT22;11573;51.334;3.244;2024-01-16T06:23:28;0.60;99.90
22813;DHT22;11573;51.334;3.244;2024-01-16T06:25:56;0.60;99.90
22813;DHT22;11573;51.334;3.244;2024-01-16T06:28:23;0.60;99.90
22813;DHT22;11573;51.334;3.244;2024-01-16T06:30:49;0.60;99.90
22813;DHT22;11573;51.334;3.244;2024-01-16T06:33:16;0.50;99.90
22813;DHT22;11573;51.334;3.244;2024-01-16T06:35:44;0.50;99.90
22813;DHT22;11573;51.334;3.244;2024-01-16T06:38:11;0.50;99.90
22813;DHT22;11573;51.334;3.244;2024-01-16T06:40:38;0.50;99.90
22813;DHT22;11573;51.334;3.244;2024-01-16T06:43:05;0.50;99.90
22813;DHT22;11573;51.334;3.244;2024-01-16T06:45:33;0.50;99.90
22813;DHT22;11573;51.334;3.244;2024-01-16T06:47:59;0.50;99.90
22813;DHT22;11573;51.334;3.244;2024-01-16T06:50:27;0.50;99.90
22813;DHT22;11573;51.334;3.244;2024-01-16T06:52:54;0.60;99.90
22813;DHT22;11573;51.334;3.244;2024-01-16T06:55:21;0.70;99.90
22813;DHT22;11573;51.334;3.244;2024-01-16T06:57:48;0.60;99.90
22813;DHT22;11573;51.334;3.244;2024-01-16T07:00:15;0.60;99.90
22813;DHT22;11573;51.334;3.244;2024-01-16T07:02:42;0.70;99.90
22813;DHT22;11573;51.334;3.244;2024-01-16T07:05:11;0.70;99.90
22813;DHT22;11573;51.334;3.244;2024-01-16T07:07:38;0.70;99.90
22813;DHT22;11573;51.334;3.244;2024-01-16T07:10:07;0.70;99.90
22813;DHT22;11573;51.334;3.244;2024-01-16T07:12:45;0.80;99.90
22813;DHT22;11573;51.334;3.244;2024-01-16T07:15:12;0.80;99.90
22813;DHT22;11573;51.334;3.244;2024-01-16T07:17:40;0.80;99.90
22813;DHT22;11573;51.334;3.244;2024-01-16T07:20:07;0.80;99.90
22813;DHT22;11573;51.334;3.244;2024-01-16T07:22:36;0.80;99.90
22813;DHT22;11573;51.334;3.244;2024-01-16T07:25:03;0.80;99.90
22813;DHT22;11573;51.334;3.244;2024-01-16T07:27:30;0.80;99.90
22813;DHT22;11573;51.334;3.244;2024-01-16T07:29:57;0.90;99.90
22813;DHT22;11573;51.334;3.244;2024-01-16T07:32:24;0.90;99.90
22813;DHT22;11573;51.334;3.244;2024-01-16T07:34:51;0.90;99.90
22813;DHT22;11573;51.334;3.244;2024-01-16T07:37:19;0.90;99.90
22813;DHT22;11573;51.334;3.244;2024-01-16T07:39:46;0.90;99.90
22813;DHT22;11573;51.334;3.244;2024-01-16T07:42:13;0.90;99.90
22813;DHT22;11573;51.334;3.244;2024-01-16T07:44:40;0.90;99.90
22813;DHT22;11573;51.334;3.244;2024-01-16T07:47:07;0.90;99.90
22813;DHT22;11573;51.334;3.244;2024-01-16T07:49:34;0.90;99.90
22813;DHT22;11573;51.334;3.244;2024-01-16T07:52:01;1.00;99.90
22813;DHT22;11573;51.334;3.244;2024-01-16T07:54:28;1.00;99.90
22813;DHT22;11573;51.334;3.244;2024-01-16T07:56:55;1.10;99.90
22813;DHT22;11573;51.334;3.244;2024-01-16T07:59:22;1.00;99.90
22813;DHT22;11573;51.334;3.244;2024-01-16T08:01:49;1.10;99.90
22813;DHT22;11573;51.334;3.244;2024-01-16T08:04:16;1.00;99.90
22813;DHT22;11573;51.334;3.244;2024-01-16T08:06:43;1.10;99.90
22813;DHT22;11573;51.334;3.244;2024-01-16T08:09:10;1.10;99.90
22813;DHT22;11573;51.334;3.244;2024-01-16T08:11:39;1.00;99.90
22813;DHT22;11573;51.334;3.244;2024-01-16T08:14:06;1.00;99.90
22813;DHT22;11573;51.334;3.244;2024-01-16T08:16:33;1.00;99.90
22813;DHT22;11573;51.334;3.244;2024-01-16T08:19:00;1.00;99.90
22813;DHT22;11573;51.334;3.244;2024-01-16T08:21:27;1.00;99.90
22813;DHT22;11573;51.334;3.244;2024-01-16T08:23:54;1.00;99.90
22813;DHT22;11573;51.334;3.244;2024-01-16T08:26:22;1.10;99.90
22813;DHT22;11573;51.334;3.244;2024-01-16T08:28:48;1.10;99.90
22813;DHT22;11573;51.334;3.244;2024-01-16T08:31:19;1.10;99.90
22813;DHT22;11573;51.334;3.244;2024-01-16T08:33:46;1.20;99.90
22813;DHT22;11573;51.334;3.244;2024-01-16T08:36:18;1.20;99.90
22813;DHT22;11573;51.334;3.244;2024-01-16T08:38:45;1.20;99.90
22813;DHT22;11573;51.334;3.244;2024-01-16T08:41:12;1.10;99.90
22813;DHT22;11573;51.334;3.244;2024-01-16T08:43:39;1.10;99.90
22813;DHT22;11573;51.334;3.244;2024-01-16T08:46:06;1.10;99.90
22813;DHT22;11573;51.334;3.244;2024-01-16T08:48:33;1.00;99.90
22813;DHT22;11573;51.334;3.244;2024-01-16T08:51:01;0.90;99.90
22813;DHT22;11573;51.334;3.244;2024-01-16T08:53:28;0.90;99.90
22813;DHT22;11573;51.334;3.244;2024-01-16T08:55:55;1.00;99.90
22813;DHT22;11573;51.334;3.244;2024-01-16T08:58:22;1.00;99.90
22813;DHT22;11573;51.334;3.244;2024-01-16T09:00:49;1.10;99.90
22813;DHT22;11573;51.334;3.244;2024-01-16T09:03:16;1.10;99.90
22813;DHT22;11573;51.334;3.244;2024-01-16T09:05:45;1.00;99.90
22813;DHT22;11573;51.334;3.244;2024-01-16T09:08:12;1.00;99.90
22813;DHT22;11573;51.334;3.244;2024-01-16T09:10:40;1.00;99.90
22813;DHT22;11573;51.334;3.244;2024-01-16T09:13:07;1.00;99.90
22813;DHT22;11573;51.334;3.244;2024-01-16T09:15:34;1.00;99.90
22813;DHT22;11573;51.334;3.244;2024-01-16T09:18:01;1.00;99.90
22813;DHT22;11573;51.334;3.244;2024-01-16T09:20:29;1.10;99.90
22813;DHT22;11573;51.334;3.244;2024-01-16T09:22:56;1.10;99.90
22813;DHT22;11573;51.334;3.244;2024-01-16T09:25:23;1.20;99.90
22813;DHT22;11573;51.334;3.244;2024-01-16T09:27:54;1.30;99.90
22813;DHT22;11573;51.334;3.244;2024-01-16T09:30:21;1.50;99.90
22813;DHT22;11573;51.334;3.244;2024-01-16T09:32:49;1.40;99.90
22813;DHT22;11573;51.334;3.244;2024-01-16T09:35:16;1.60;99.90
22813;DHT22;11573;51.334;3.244;2024-01-16T09:37:44;1.80;99.90
22813;DHT22;11573;51.334;3.244;2024-01-16T09:40:11;1.80;99.90
22813;DHT22;11573;51.334;3.244;2024-01-16T09:42:40;1.80;99.90
22813;DHT22;11573;51.334;3.244;2024-01-16T09:45:08;1.90;99.90
22813;DHT22;11573;51.334;3.244;2024-01-16T09:47:37;1.90;99.90
22813;DHT22;11573;51.334;3.244;2024-01-16T09:50:04;2.10;99.90
22813;DHT22;11573;51.334;3.244;2024-01-16T09:52:32;2.10;99.90
22813;DHT22;11573;51.334;3.244;2024-01-16T09:54:59;2.10;99.90
22813;DHT22;11573;51.334;3.244;2024-01-16T09:57:26;2.10;99.90
22813;DHT22;11573;51.334;3.244;2024-01-16T09:59:55;2.20;99.90
22813;DHT22;11573;51.334;3.244;2024-01-16T10:02:23;2.20;99.90
22813;DHT22;11573;51.334;3.244;2024-01-16T10:04:51;2.30;99.90
22813;DHT22;11573;51.334;3.244;2024-01-16T10:07:19;2.30;99.90
22813;DHT22;11573;51.334;3.244;2024-01-16T10:09:52;2.50;99.90
22813;DHT22;11573;51.334;3.244;2024-01-16T10:12:19;2.60;99.90
22813;DHT22;11573;51.334;3.244;2024-01-16T10:14:47;2.60;99.90
22813;DHT22;11573;51.334;3.244;2024-01-16T10:17:15;2.50;99.90
22813;DHT22;11573;51.334;3.244;2024-01-16T10:19:50;2.50;99.90
22813;DHT22;11573;51.334;3.244;2024-01-16T10:22:22;2.60;99.90
22813;DHT22;11573;51.334;3.244;2024-01-16T10:25:12;2.70;99.90
22813;DHT22;11573;51.334;3.244;2024-01-16T10:27:44;2.60;99.90
22813;DHT22;11573;51.334;3.244;2024-01-16T10:30:11;2.70;99.90
22813;DHT22;11573;51.334;3.244;2024-01-16T10:32:41;2.60;99.90
22813;DHT22;11573;51.334;3.244;2024-01-16T10:35:10;2.80;99.90
22813;DHT22;11573;51.334;3.244;2024-01-16T10:37:50;2.80;99.90
22813;DHT22;11573;51.334;3.244;2024-01-16T10:40:22;2.90;99.90
22813;DHT22;11573;51.334;3.244;2024-01-16T10:43:04;3.00;99.90
22813;DHT22;11573;51.334;3.244;2024-01-16T10:45:32;2.90;99.90
22813;DHT22;11573;51.334;3.244;2024-01-16T10:48:05;3.10;99.90
22813;DHT22;11573;51.334;3.244;2024-01-16T10:50:34;3.10;99.90
22813;DHT22;11573;51.334;3.244;2024-01-16T10:53:06;3.10;99.90
22813;DHT22;11573;51.334;3.244;2024-01-16T10:55:52;3.10;99.90
22813;DHT22;11573;51.334;3.244;2024-01-16T10:58:23;3.20;99.90
22813;DHT22;11573;51.334;3.244;2024-01-16T11:00:53;3.10;99.90
22813;DHT22;11573;51.334;3.244;2024-01-16T11:03:28;3.30;99.90
22813;DHT22;11573;51.334;3.244;2024-01-16T11:05:57;3.10;99.90
22813;DHT22;11573;51.334;3.244;2024-01-16T11:08:25;3.10;99.90
22813;DHT22;11573;51.334;3.244;2024-01-16T11:10:59;3.10;99.90
22813;DHT22;11573;51.334;3.244;2024-01-16T11:13:27;3.30;99.90
22813;DHT22;11573;51.334;3.244;2024-01-16T11:15:56;3.60;99.90
22813;DHT22;11573;51.334;3.244;2024-01-16T11:18:25;4.00;99.90
22813;DHT22;11573;51.334;3.244;2024-01-16T11:20:55;4.10;99.90
22813;DHT22;11573;51.334;3.244;2024-01-16T11:23:34;4.20;99.90
22813;DHT22;11573;51.334;3.244;2024-01-16T11:26:26;4.30;99.90
22813;DHT22;11573;51.334;3.244;2024-01-16T11:29:00;4.40;99.90
22813;DHT22;11573;51.334;3.244;2024-01-16T11:31:29;4.40;99.90
22813;DHT22;11573;51.334;3.244;2024-01-16T11:33:58;4.40;99.90
22813;DHT22;11573;51.334;3.244;2024-01-16T11:36:49;4.40;99.90
22813;DHT22;11573;51.334;3.244;2024-01-16T11:39:26;4.40;99.90
22813;DHT22;11573;51.334;3.244;2024-01-16T11:41:57;4.30;99.90
22813;DHT22;11573;51.334;3.244;2024-01-16T11:47:05;4.20;99.90
22813;DHT22;11573;51.334;3.244;2024-01-16T11:49:33;4.30;99.90
22813;DHT22;11573;51.334;3.244;2024-01-16T11:52:00;4.30;99.90
22813;DHT22;11573;51.334;3.244;2024-01-16T11:54:27;4.20;99.90
22813;DHT22;11573;51.334;3.244;2024-01-16T12:01:57;4.20;99.90
22813;DHT22;11573;51.334;3.244;2024-01-16T12:04:27;4.20;99.90
22813;DHT22;11573;51.334;3.244;2024-01-16T12:06:58;4.20;99.90
22813;DHT22;11573;51.334;3.244;2024-01-16T12:09:27;4.10;99.90
22813;DHT22;11573;51.334;3.244;2024-01-16T12:12:00;4.10;99.90
22813;DHT22;11573;51.334;3.244;2024-01-16T12:14:29;4.30;99.90
22813;DHT22;11573;51.334;3.244;2024-01-16T12:17:22;4.30;99.90
22813;DHT22;11573;51.334;3.244;2024-01-16T12:19:50;4.30;99.90
22813;DHT22;11573;51.334;3.244;2024-01-16T12:22:17;4.30;99.90
22813;DHT22;11573;51.334;3.244;2024-01-16T12:24:45;4.50;99.90
22813;DHT22;11573;51.334;3.244;2024-01-16T12:27:13;4.60;99.90
22813;DHT22;11573;51.334;3.244;2024-01-16T12:29:40;4.70;99.90
22813;DHT22;11573;51.334;3.244;2024-01-16T12:32:11;4.60;99.90
22813;DHT22;11573;51.334;3.244;2024-01-16T12:34:47;4.70;99.90
22813;DHT22;11573;51.334;3.244;2024-01-16T12:37:17;4.70;99.90
22813;DHT22;11573;51.334;3.244;2024-01-16T12:39:44;4.70;99.90
22813;DHT22;11573;51.334;3.244;2024-01-16T12:42:12;4.80;99.90
22813;DHT22;11573;51.334;3.244;2024-01-16T12:44:39;4.90;99.90
22813;DHT22;11573;51.334;3.244;2024-01-16T12:47:07;4.60;99.90
22813;DHT22;11573;51.334;3.244;2024-01-16T12:49:41;4.60;99.90
22813;DHT22;11573;51.334;3.244;2024-01-16T12:52:15;4.60;99.90
22813;DHT22;11573;51.334;3.244;2024-01-16T12:54:43;4.50;99.90
22813;DHT22;11573;51.334;3.244;2024-01-16T12:57:10;4.70;99.90
22813;DHT22;11573;51.334;3.244;2024-01-16T12:59:43;4.60;99.90
22813;DHT22;11573;51.334;3.244;2024-01-16T13:02:10;4.60;99.90
22813;DHT22;11573;51.334;3.244;2024-01-16T13:04:38;4.70;99.90
22813;DHT22;11573;51.334;3.244;2024-01-16T13:07:05;4.70;99.90
22813;DHT22;11573;51.334;3.244;2024-01-16T13:09:33;4.90;99.90
22813;DHT22;11573;51.334;3.244;2024-01-16T13:12:00;4.90;99.90
22813;DHT22;11573;51.334;3.244;2024-01-16T13:14:27;4.80;99.90
22813;DHT22;11573;51.334;3.244;2024-01-16T13:16:54;4.80;99.90
22813;DHT22;11573;51.334;3.244;2024-01-16T13:19:24;4.60;99.90
22813;DHT22;11573;51.334;3.244;2024-01-16T13:21:52;4.60;99.90
22813;DHT22;11573;51.334;3.244;2024-01-16T13:24:20;4.70;99.90
22813;DHT22;11573;51.334;3.244;2024-01-16T13:26:49;4.70;99.90
22813;DHT22;11573;51.334;3.244;2024-01-16T13:29:16;4.70;99.90
22813;DHT22;11573;51.334;3.244;2024-01-16T13:31:43;4.70;99.90
22813;DHT22;11573;51.334;3.244;2024-01-16T13:34:11;4.80;99.90
22813;DHT22;11573;51.334;3.244;2024-01-16T13:36:39;4.70;99.90
22813;DHT22;11573;51.334;3.244;2024-01-16T13:39:26;4.80;99.90
22813;DHT22;11573;51.334;3.244;2024-01-16T13:41:53;4.70;99.90
22813;DHT22;11573;51.334;3.244;2024-01-16T13:44:20;4.70;99.90
22813;DHT22;11573;51.334;3.244;2024-01-16T13:46:47;4.60;99.90
22813;DHT22;11573;51.334;3.244;2024-01-16T13:49:32;4.50;99.90
22813;DHT22;11573;51.334;3.244;2024-01-16T13:52:01;4.50;99.90
22813;DHT22;11573;51.334;3.244;2024-01-16T13:54:28;4.80;99.90
22813;DHT22;11573;51.334;3.244;2024-01-16T13:56:55;4.90;99.90
22813;DHT22;11573;51.334;3.244;2024-01-16T13:59:33;5.10;99.90
22813;DHT22;11573;51.334;3.244;2024-01-16T14:02:02;5.20;99.90
22813;DHT22;11573;51.334;3.244;2024-01-16T14:04:29;5.40;99.90
22813;DHT22;11573;51.334;3.244;2024-01-16T14:06:56;5.40;99.90
22813;DHT22;11573;51.334;3.244;2024-01-16T14:09:40;5.30;99.90
22813;DHT22;11573;51.334;3.244;2024-01-16T14:12:12;5.50;99.90
22813;DHT22;11573;51.334;3.244;2024-01-16T14:14:41;5.50;99.90
22813;DHT22;11573;51.334;3.244;2024-01-16T14:17:08;5.20;99.90
22813;DHT22;11573;51.334;3.244;2024-01-16T14:19:36;5.10;99.90
22813;DHT22;11573;51.334;3.244;2024-01-16T14:22:04;5.00;99.90
22813;DHT22;11573;51.334;3.244;2024-01-16T14:24:31;5.10;99.90
22813;DHT22;11573;51.334;3.244;2024-01-16T14:26:58;5.00;99.90
22813;DHT22;11573;51.334;3.244;2024-01-16T14:29:25;4.90;99.90
22813;DHT22;11573;51.334;3.244;2024-01-16T14:31:54;4.90;99.90
22813;DHT22;11573;51.334;3.244;2024-01-16T14:34:23;4.70;99.90
22813;DHT22;11573;51.334;3.244;2024-01-16T14:36:50;4.60;99.90
22813;DHT22;11573;51.334;3.244;2024-01-16T14:39:18;4.60;99.90
22813;DHT22;11573;51.334;3.244;2024-01-16T14:41:53;4.50;99.90
22813;DHT22;11573;51.334;3.244;2024-01-16T14:44:20;4.30;99.90
22813;DHT22;11573;51.334;3.244;2024-01-16T14:46:47;4.40;99.90
22813;DHT22;11573;51.334;3.244;2024-01-16T14:49:19;4.40;99.90
22813;DHT22;11573;51.334;3.244;2024-01-16T14:51:46;4.40;99.90
22813;DHT22;11573;51.334;3.244;2024-01-16T14:54:13;4.30;99.90
22813;DHT22;11573;51.334;3.244;2024-01-16T14:56:40;4.20;99.90
22813;DHT22;11573;51.334;3.244;2024-01-16T14:59:07;4.20;99.90
22813;DHT22;11573;51.334;3.244;2024-01-16T15:01:41;4.00;99.90
22813;DHT22;11573;51.334;3.244;2024-01-16T15:04:09;4.00;99.90
22813;DHT22;11573;51.334;3.244;2024-01-16T15:06:37;3.90;99.90
22813;DHT22;11573;51.334;3.244;2024-01-16T15:09:04;3.90;99.90
22813;DHT22;11573;51.334;3.244;2024-01-16T15:11:31;3.90;99.90
22813;DHT22;11573;51.334;3.244;2024-01-16T15:13:58;3.80;99.90
22813;DHT22;11573;51.334;3.244;2024-01-16T15:16:25;3.80;99.90
22813;DHT22;11573;51.334;3.244;2024-01-16T15:18:54;3.70;99.90
22813;DHT22;11573;51.334;3.244;2024-01-16T15:21:22;3.60;99.90
22813;DHT22;11573;51.334;3.244;2024-01-16T15:23:49;3.50;99.90
22813;DHT22;11573;51.334;3.244;2024-01-16T15:26:16;3.40;99.90
22813;DHT22;11573;51.334;3.244;2024-01-16T15:28:48;3.30;99.90
22813;DHT22;11573;51.334;3.244;2024-01-16T15:31:16;3.30;99.90
22813;DHT22;11573;51.334;3.244;2024-01-16T15:33:44;3.20;99.90
22813;DHT22;11573;51.334;3.244;2024-01-16T15:36:11;3.20;99.90
22813;DHT22;11573;51.334;3.244;2024-01-16T15:38:38;3.00;99.90
22813;DHT22;11573;51.334;3.244;2024-01-16T15:41:05;3.00;99.90
22813;DHT22;11573;51.334;3.244;2024-01-16T15:43:32;3.10;99.90
22813;DHT22;11573;51.334;3.244;2024-01-16T15:46:00;2.90;99.90
22813;DHT22;11573;51.334;3.244;2024-01-16T15:48:27;2.90;99.90
22813;DHT22;11573;51.334;3.244;2024-01-16T15:51:00;2.90;99.90
22813;DHT22;11573;51.334;3.244;2024-01-16T15:53:27;2.80;99.90
22813;DHT22;11573;51.334;3.244;2024-01-16T15:55:55;2.70;99.90
22813;DHT22;11573;51.334;3.244;2024-01-16T15:58:22;2.60;99.90
22813;DHT22;11573;51.334;3.244;2024-01-16T16:00:49;2.60;99.90